sensor_id;sensor_type;location;lat;lon;timestamp;pressure;altitude;pressure_sealevel;temperature;humidity
63405;BME280;49541;57.840;12.306;2023-02-16T00:03:39;100925.56;;;3.89;94.68
63405;BME280;49541;57.840;12.306;2023-02-16T00:08:39;100927.06;;;4.26;93.14
63405;BME280;49541;57.840;12.306;2023-02-16T00:13:39;100920.84;;;4.27;92.84
63405;BME280;49541;57.840;12.306;2023-02-16T00:18:51;100920.41;;;4.19;92.56
63405;BME280;49541;57.840;12.306;2023-02-16T00:23:52;100923.59;;;4.26;93.00
63405;BME280;49541;57.840;12.306;2023-02-16T00:28:53;100920.25;;;4.38;92.01
63405;BME280;49541;57.840;12.306;2023-02-16T00:33:53;100907.72;;;4.58;91.53
63405;BME280;49541;57.840;12.306;2023-02-16T00:38:54;100907.00;;;4.24;92.55
63405;BME280;49541;57.840;12.306;2023-02-16T00:43:54;100906.53;;;4.00;93.72
63405;BME280;49541;57.840;12.306;2023-02-16T00:48:54;100916.66;;;4.07;93.86
63405;BME280;49541;57.840;12.306;2023-02-16T00:53:54;100916.00;;;4.20;93.31
63405;BME280;49541;57.840;12.306;2023-02-16T00:58:55;100906.72;;;4.13;94.26
63405;BME280;49541;57.840;12.306;2023-02-16T01:03:56;100894.66;;;4.24;92.94
63405;BME280;49541;57.840;12.306;2023-02-16T01:09:14;100877.94;;;4.56;92.98
63405;BME280;49541;57.840;12.306;2023-02-16T01:14:33;100890.03;;;4.60;90.85
63405;BME280;49541;57.840;12.306;2023-02-16T01:19:33;100874.31;;;4.58;91.21
63405;BME280;49541;57.840;12.306;2023-02-16T01:24:33;100842.28;;;4.64;90.01
63405;BME280;49541;57.840;12.306;2023-02-16T01:29:34;100844.13;;;4.78;89.93
63405;BME280;49541;57.840;12.306;2023-02-16T01:34:34;100833.31;;;4.83;89.50
63405;BME280;49541;57.840;12.306;2023-02-16T01:39:34;100859.75;;;4.67;89.75
63405;BME280;49541;57.840;12.306;2023-02-16T01:49:49;100860.75;;;4.02;92.74
63405;BME280;49541;57.840;12.306;2023-02-16T01:54:51;100853.75;;;4.01;94.12
63405;BME280;49541;57.840;12.306;2023-02-16T02:04:53;100863.63;;;4.29;93.24
63405;BME280;49541;57.840;12.306;2023-02-16T02:10:15;100865.66;;;3.93;94.47
63405;BME280;49541;57.840;12.306;2023-02-16T02:15:22;100865.13;;;3.86;93.97
63405;BME280;49541;57.840;12.306;2023-02-16T02:26:06;100846.81;;;4.00;93.43
63405;BME280;49541;57.840;12.306;2023-02-16T02:31:39;100833.84;;;4.27;91.86
63405;BME280;49541;57.840;12.306;2023-02-16T02:36:37;100822.66;;;4.24;91.69
63405;BME280;49541;57.840;12.306;2023-02-16T02:47:05;100788.53;;;4.81;88.60
63405;BME280;49541;57.840;12.306;2023-02-16T02:52:06;100781.00;;;4.75;88.68
63405;BME280;49541;57.840;12.306;2023-02-16T02:57:07;100775.28;;;4.83;88.72
63405;BME280;49541;57.840;12.306;2023-02-16T03:02:27;100767.19;;;5.00;87.29
63405;BME280;49541;57.840;12.306;2023-02-16T03:07:29;100765.03;;;5.07;87.55
63405;BME280;49541;57.840;12.306;2023-02-16T03:12:45;100758.78;;;4.93;87.53
63405;BME280;49541;57.840;12.306;2023-02-16T03:17:46;100761.25;;;4.82;88.70
63405;BME280;49541;57.840;12.306;2023-02-16T03:23:05;100769.31;;;4.65;90.10
63405;BME280;49541;57.840;12.306;2023-02-16T03:28:26;100759.34;;;4.99;88.06
63405;BME280;49541;57.840;12.306;2023-02-16T03:33:46;100742.03;;;5.23;86.49
63405;BME280;49541;57.840;12.306;2023-02-16T03:38:53;100724.78;;;4.89;87.93
63405;BME280;49541;57.840;12.306;2023-02-16T03:43:54;100711.31;;;5.08;88.15
63405;BME280;49541;57.840;12.306;2023-02-16T03:48:55;100704.88;;;4.83;88.01
63405;BME280;49541;57.840;12.306;2023-02-16T03:53:55;100701.59;;;4.94;88.02
63405;BME280;49541;57.840;12.306;2023-02-16T03:58:55;100690.47;;;4.89;88.58
63405;BME280;49541;57.840;12.306;2023-02-16T04:03:55;100690.56;;;4.87;88.63
63405;BME280;49541;57.840;12.306;2023-02-16T04:08:55;100682.06;;;4.68;89.54
63405;BME280;49541;57.840;12.306;2023-02-16T04:13:55;100677.34;;;4.73;90.72
63405;BME280;49541;57.840;12.306;2023-02-16T04:18:56;100678.41;;;4.99;88.71
63405;BME280;49541;57.840;12.306;2023-02-16T04:23:56;100677.63;;;5.11;88.12
63405;BME280;49541;57.840;12.306;2023-02-16T04:28:56;100690.75;;;4.70;90.79
63405;BME280;49541;57.840;12.306;2023-02-16T04:33:56;100696.53;;;4.46;91.36
63405;BME280;49541;57.840;12.306;2023-02-16T04:38:57;100697.63;;;4.58;91.94
63405;BME280;49541;57.840;12.306;2023-02-16T04:43:57;100698.38;;;4.30;93.58
63405;BME280;49541;57.840;12.306;2023-02-16T04:48:57;100690.72;;;4.11;94.79
63405;BME280;49541;57.840;12.306;2023-02-16T04:53:57;100690.25;;;4.19;95.47
63405;BME280;49541;57.840;12.306;2023-02-16T04:58:57;100684.31;;;4.45;94.11
63405;BME280;49541;57.840;12.306;2023-02-16T05:03:57;100683.44;;;4.45;93.34
63405;BME280;49541;57.840;12.306;2023-02-16T05:08:58;100686.22;;;4.13;94.77
63405;BME280;49541;57.840;12.306;2023-02-16T05:13:58;100685.94;;;4.18;94.94
63405;BME280;49541;57.840;12.306;2023-02-16T05:19:17;100693.56;;;4.22;95.75
63405;BME280;49541;57.840;12.306;2023-02-16T05:24:17;100694.34;;;4.24;95.15
63405;BME280;49541;57.840;12.306;2023-02-16T05:29:18;100688.44;;;4.49;94.59
63405;BME280;49541;57.840;12.306;2023-02-16T05:34:18;100693.66;;;4.94;92.83
63405;BME280;49541;57.840;12.306;2023-02-16T05:39:18;100696.41;;;5.07;91.27
63405;BME280;49541;57.840;12.306;2023-02-16T05:44:18;100677.19;;;4.76;91.58
63405;BME280;49541;57.840;12.306;2023-02-16T05:49:18;100676.25;;;4.91;91.58
63405;BME280;49541;57.840;12.306;2023-02-16T05:54:18;100678.00;;;5.20;90.54
63405;BME280;49541;57.840;12.306;2023-02-16T05:59:19;100679.13;;;5.30;89.23
63405;BME280;49541;57.840;12.306;2023-02-16T06:04:19;100688.66;;;5.18;89.78
63405;BME280;49541;57.840;12.306;2023-02-16T06:09:20;100696.22;;;5.10;89.83
63405;BME280;49541;57.840;12.306;2023-02-16T06:14:20;100689.22;;;5.23;89.37
63405;BME280;49541;57.840;12.306;2023-02-16T06:19:20;100677.66;;;4.83;91.20
63405;BME280;49541;57.840;12.306;2023-02-16T06:24:20;100670.66;;;4.96;90.66
63405;BME280;49541;57.840;12.306;2023-02-16T06:29:21;100678.69;;;4.95;91.49
63405;BME280;49541;57.840;12.306;2023-02-16T06:34:21;100686.41;;;4.98;91.87
63405;BME280;49541;57.840;12.306;2023-02-16T06:39:21;100686.22;;;5.01;91.45
63405;BME280;49541;57.840;12.306;2023-02-16T06:44:21;100688.56;;;5.05;90.81
63405;BME280;49541;57.840;12.306;2023-02-16T06:49:21;100685.09;;;5.19;90.41
63405;BME280;49541;57.840;12.306;2023-02-16T06:54:22;100672.81;;;5.32;89.65
63405;BME280;49541;57.840;12.306;2023-02-16T06:59:22;100680.38;;;5.10;91.13
63405;BME280;49541;57.840;12.306;2023-02-16T07:04:22;100677.69;;;5.39;90.29
63405;BME280;49541;57.840;12.306;2023-02-16T07:09:22;100670.28;;;5.58;88.92
63405;BME280;49541;57.840;12.306;2023-02-16T07:14:22;100670.06;;;5.61;88.51
63405;BME280;49541;57.840;12.306;2023-02-16T07:19:23;100665.66;;;5.62;88.20
63405;BME280;49541;57.840;12.306;2023-02-16T07:24:23;100669.84;;;5.79;88.65
63405;BME280;49541;57.840;12.306;2023-02-16T07:29:23;100669.75;;;5.53;88.61
63405;BME280;49541;57.840;12.306;2023-02-16T07:34:23;100665.78;;;5.46;89.09
63405;BME280;49541;57.840;12.306;2023-02-16T07:39:24;100661.63;;;5.42;89.32
63405;BME280;49541;57.840;12.306;2023-02-16T07:44:24;100669.50;;;5.29;90.71
63405;BME280;49541;57.840;12.306;2023-02-16T07:49:24;100662.84;;;5.23;91.16
63405;BME280;49541;57.840;12.306;2023-02-16T07:54:24;100667.56;;;5.04;91.68
63405;BME280;49541;57.840;12.306;2023-02-16T07:59:24;100669.06;;;4.79;94.37
63405;BME280;49541;57.840;12.306;2023-02-16T08:04:25;100674.25;;;4.81;93.95
63405;BME280;49541;57.840;12.306;2023-02-16T08:09:25;100679.72;;;4.78;94.78
63405;BME280;49541;57.840;12.306;2023-02-16T08:14:25;100688.09;;;4.70;95.74
63405;BME280;49541;57.840;12.306;2023-02-16T08:19:25;100688.41;;;4.80;95.39
63405;BME280;49541;57.840;12.306;2023-02-16T08:24:26;100688.69;;;5.04;94.99
63405;BME280;49541;57.840;12.306;2023-02-16T08:29:26;100693.06;;;5.46;94.32
63405;BME280;49541;57.840;12.306;2023-02-16T08:34:28;100689.91;;;5.54;92.28
63405;BME280;49541;57.840;12.306;2023-02-16T08:39:30;100687.72;;;5.33;93.07
63405;BME280;49541;57.840;12.306;2023-02-16T08:44:31;100677.84;;;5.23;94.98
63405;BME280;49541;57.840;12.306;2023-02-16T08:49:32;100682.53;;;5.18;94.50
63405;BME280;49541;57.840;12.306;2023-02-16T08:54:32;100678.59;;;5.10;95.43
63405;BME280;49541;57.840;12.306;2023-02-16T08:59:33;100667.91;;;5.26;94.84
63405;BME280;49541;57.840;12.306;2023-02-16T09:04:33;100664.25;;;5.56;93.83
63405;BME280;49541;57.840;12.306;2023-02-16T09:09:35;100668.47;;;5.31;94.38
63405;BME280;49541;57.840;12.306;2023-02-16T09:14:35;100669.13;;;5.35;94.76
63405;BME280;49541;57.840;12.306;2023-02-16T09:19:36;100658.94;;;5.29;95.44
63405;BME280;49541;57.840;12.306;2023-02-16T09:24:36;100664.88;;;5.32;96.08
63405;BME280;49541;57.840;12.306;2023-02-16T09:29:36;100662.56;;;5.55;95.88
63405;BME280;49541;57.840;12.306;2023-02-16T09:34:37;100660.34;;;5.89;94.46
63405;BME280;49541;57.840;12.306;2023-02-16T09:39:37;100661.22;;;5.89;95.02
63405;BME280;49541;57.840;12.306;2023-02-16T09:44:40;100668.59;;;5.57;95.61
63405;BME280;49541;57.840;12.306;2023-02-16T09:49:45;100681.31;;;5.92;95.09
63405;BME280;49541;57.840;12.306;2023-02-16T09:54:48;100683.34;;;5.74;95.57
63405;BME280;49541;57.840;12.306;2023-02-16T10:10:13;100676.69;;;5.68;96.60
63405;BME280;49541;57.840;12.306;2023-02-16T10:15:16;100677.72;;;5.93;97.77
63405;BME280;49541;57.840;12.306;2023-02-16T10:20:24;100672.41;;;6.07;96.11
63405;BME280;49541;57.840;12.306;2023-02-16T10:25:43;100673.88;;;6.11;96.51
63405;BME280;49541;57.840;12.306;2023-02-16T10:30:48;100685.06;;;6.02;96.84
63405;BME280;49541;57.840;12.306;2023-02-16T10:35:51;100674.63;;;6.13;97.23
63405;BME280;49541;57.840;12.306;2023-02-16T10:40:59;100678.81;;;6.43;96.45
63405;BME280;49541;57.840;12.306;2023-02-16T10:46:00;100684.50;;;6.24;96.34
63405;BME280;49541;57.840;12.306;2023-02-16T10:51:09;100674.28;;;6.05;97.18
63405;BME280;49541;57.840;12.306;2023-02-16T10:56:20;100672.00;;;6.13;97.74
63405;BME280;49541;57.840;12.306;2023-02-16T11:01:38;100678.56;;;6.21;97.61
63405;BME280;49541;57.840;12.306;2023-02-16T11:06:42;100667.53;;;6.14;98.24
63405;BME280;49541;57.840;12.306;2023-02-16T11:11:42;100657.72;;;6.16;97.91
63405;BME280;49541;57.840;12.306;2023-02-16T11:16:42;100656.13;;;6.13;99.13
63405;BME280;49541;57.840;12.306;2023-02-16T11:26:53;100670.63;;;6.21;98.59
63405;BME280;49541;57.840;12.306;2023-02-16T11:31:57;100662.78;;;6.19;99.05
63405;BME280;49541;57.840;12.306;2023-02-16T11:37:02;100655.81;;;5.91;100.00
63405;BME280;49541;57.840;12.306;2023-02-16T11:47:33;100673.56;;;5.89;100.00
63405;BME280;49541;57.840;12.306;2023-02-16T11:52:34;100680.13;;;5.83;100.00
63405;BME280;49541;57.840;12.306;2023-02-16T11:57:34;100681.50;;;5.62;100.00
63405;BME280;49541;57.840;12.306;2023-02-16T12:18:26;100683.50;;;5.58;100.00
63405;BME280;49541;57.840;12.306;2023-02-16T12:28:41;100687.09;;;5.57;100.00
63405;BME280;49541;57.840;12.306;2023-02-16T12:33:50;100676.81;;;5.80;99.61
63405;BME280;49541;57.840;12.306;2023-02-16T12:43:59;100669.19;;;6.02;98.15
63405;BME280;49541;57.840;12.306;2023-02-16T12:49:12;100669.00;;;6.05;97.08
63405;BME280;49541;57.840;12.306;2023-02-16T12:54:29;100667.50;;;6.01;97.45
63405;BME280;49541;57.840;12.306;2023-02-16T12:59:42;100662.50;;;6.36;95.95
63405;BME280;49541;57.840;12.306;2023-02-16T13:05:05;100670.31;;;6.38;94.77
63405;BME280;49541;57.840;12.306;2023-02-16T13:20:13;100650.00;;;6.26;94.06
63405;BME280;49541;57.840;12.306;2023-02-16T13:25:20;100656.78;;;6.43;93.46
63405;BME280;49541;57.840;12.306;2023-02-16T13:45:49;100652.25;;;6.57;91.56
63405;BME280;49541;57.840;12.306;2023-02-16T13:51:03;100666.00;;;6.50;92.18
63405;BME280;49541;57.840;12.306;2023-02-16T13:56:13;100654.06;;;6.57;91.08
63405;BME280;49541;57.840;12.306;2023-02-16T14:06:37;100654.44;;;6.25;92.12
63405;BME280;49541;57.840;12.306;2023-02-16T14:16:48;100651.47;;;6.94;88.15
63405;BME280;49541;57.840;12.306;2023-02-16T14:21:48;100648.31;;;7.02;87.79
63405;BME280;49541;57.840;12.306;2023-02-16T14:26:50;100641.78;;;7.55;86.58
63405;BME280;49541;57.840;12.306;2023-02-16T14:32:03;100639.09;;;7.68;84.22
63405;BME280;49541;57.840;12.306;2023-02-16T14:42:17;100630.13;;;7.58;83.78
63405;BME280;49541;57.840;12.306;2023-02-16T14:52:29;100620.31;;;7.71;84.21
63405;BME280;49541;57.840;12.306;2023-02-16T15:02:52;100602.66;;;7.83;83.40
63405;BME280;49541;57.840;12.306;2023-02-16T15:07:57;100595.41;;;8.20;82.25
63405;BME280;49541;57.840;12.306;2023-02-16T15:13:01;100587.53;;;8.08;80.76
63405;BME280;49541;57.840;12.306;2023-02-16T15:18:01;100590.53;;;7.44;84.16
63405;BME280;49541;57.840;12.306;2023-02-16T15:23:06;100589.34;;;7.72;84.01
63405;BME280;49541;57.840;12.306;2023-02-16T15:28:21;100581.97;;;7.64;83.66
63405;BME280;49541;57.840;12.306;2023-02-16T15:33:30;100584.41;;;7.78;83.02
63405;BME280;49541;57.840;12.306;2023-02-16T15:38:33;100562.41;;;7.89;82.41
63405;BME280;49541;57.840;12.306;2023-02-16T15:43:35;100567.78;;;7.76;82.30
63405;BME280;49541;57.840;12.306;2023-02-16T15:48:36;100555.94;;;7.58;83.66
63405;BME280;49541;57.840;12.306;2023-02-16T15:58:47;100554.44;;;7.43;84.07
63405;BME280;49541;57.840;12.306;2023-02-16T16:03:47;100545.41;;;7.45;84.42
63405;BME280;49541;57.840;12.306;2023-02-16T16:08:48;100549.13;;;7.43;84.67
63405;BME280;49541;57.840;12.306;2023-02-16T16:13:48;100541.19;;;7.43;84.30
63405;BME280;49541;57.840;12.306;2023-02-16T16:18:51;100539.31;;;7.32;84.47
63405;BME280;49541;57.840;12.306;2023-02-16T16:23:56;100540.59;;;7.26;84.72
63405;BME280;49541;57.840;12.306;2023-02-16T16:28:57;100535.97;;;7.41;84.78
63405;BME280;49541;57.840;12.306;2023-02-16T16:44:11;100519.47;;;7.13;85.74
63405;BME280;49541;57.840;12.306;2023-02-16T16:49:12;100514.97;;;7.03;86.88
63405;BME280;49541;57.840;12.306;2023-02-16T16:54:29;100518.41;;;7.16;86.07
63405;BME280;49541;57.840;12.306;2023-02-16T16:59:30;100521.22;;;7.26;85.41
63405;BME280;49541;57.840;12.306;2023-02-16T17:04:30;100519.47;;;6.89;87.36
63405;BME280;49541;57.840;12.306;2023-02-16T17:09:30;100506.78;;;6.82;87.59
63405;BME280;49541;57.840;12.306;2023-02-16T17:14:31;100517.91;;;7.11;86.18
63405;BME280;49541;57.840;12.306;2023-02-16T17:19:31;100518.50;;;6.90;87.64
63405;BME280;49541;57.840;12.306;2023-02-16T17:24:31;100514.47;;;6.97;87.42
63405;BME280;49541;57.840;12.306;2023-02-16T17:29:31;100514.56;;;6.96;87.93
63405;BME280;49541;57.840;12.306;2023-02-16T17:34:31;100507.31;;;7.11;86.95
63405;BME280;49541;57.840;12.306;2023-02-16T17:39:32;100514.28;;;6.88;87.69
63405;BME280;49541;57.840;12.306;2023-02-16T17:44:32;100519.78;;;6.61;89.11
63405;BME280;49541;57.840;12.306;2023-02-16T17:49:33;100526.84;;;6.47;90.11
63405;BME280;49541;57.840;12.306;2023-02-16T17:54:33;100528.75;;;6.45;90.14
63405;BME280;49541;57.840;12.306;2023-02-16T17:59:33;100530.03;;;6.52;90.66
63405;BME280;49541;57.840;12.306;2023-02-16T18:04:33;100533.78;;;6.24;91.13
63405;BME280;49541;57.840;12.306;2023-02-16T18:09:39;100525.94;;;6.23;91.39
63405;BME280;49541;57.840;12.306;2023-02-16T18:14:39;100541.78;;;6.48;90.65
63405;BME280;49541;57.840;12.306;2023-02-16T18:19:40;100530.25;;;6.36;90.64
63405;BME280;49541;57.840;12.306;2023-02-16T18:24:40;100535.34;;;6.40;90.40
63405;BME280;49541;57.840;12.306;2023-02-16T18:29:43;100527.00;;;6.33;91.12
63405;BME280;49541;57.840;12.306;2023-02-16T18:34:43;100525.41;;;6.56;90.48
63405;BME280;49541;57.840;12.306;2023-02-16T18:39:43;100531.94;;;6.50;89.54
63405;BME280;49541;57.840;12.306;2023-02-16T18:44:43;100537.44;;;6.34;90.37
63405;BME280;49541;57.840;12.306;2023-02-16T18:49:46;100531.22;;;6.10;91.26
63405;BME280;49541;57.840;12.306;2023-02-16T18:54:47;100526.69;;;6.38;91.01
63405;BME280;49541;57.840;12.306;2023-02-16T18:59:48;100515.47;;;6.21;91.16
63405;BME280;49541;57.840;12.306;2023-02-16T19:04:48;100523.06;;;6.26;91.58
63405;BME280;49541;57.840;12.306;2023-02-16T19:09:48;100518.41;;;6.42;90.60
63405;BME280;49541;57.840;12.306;2023-02-16T19:14:48;100516.50;;;6.57;90.51
63405;BME280;49541;57.840;12.306;2023-02-16T19:19:49;100519.41;;;6.78;89.20
63405;BME280;49541;57.840;12.306;2023-02-16T19:24:49;100508.22;;;6.98;87.72
63405;BME280;49541;57.840;12.306;2023-02-16T19:29:49;100503.09;;;6.84;88.09
63405;BME280;49541;57.840;12.306;2023-02-16T19:34:49;100509.19;;;6.97;87.67
63405;BME280;49541;57.840;12.306;2023-02-16T19:39:49;100495.06;;;7.10;86.44
63405;BME280;49541;57.840;12.306;2023-02-16T19:44:49;100494.25;;;7.21;85.84
63405;BME280;49541;57.840;12.306;2023-02-16T19:49:50;100495.03;;;6.86;87.49
63405;BME280;49541;57.840;12.306;2023-02-16T19:54:50;100492.72;;;6.81;88.52
63405;BME280;49541;57.840;12.306;2023-02-16T19:59:50;100502.38;;;7.06;87.14
63405;BME280;49541;57.840;12.306;2023-02-16T20:04:51;100500.72;;;6.92;87.35
63405;BME280;49541;57.840;12.306;2023-02-16T20:09:52;100502.19;;;6.96;88.17
63405;BME280;49541;57.840;12.306;2023-02-16T20:14:52;100498.00;;;6.81;88.25
63405;BME280;49541;57.840;12.306;2023-02-16T20:19:52;100487.75;;;7.01;88.21
63405;BME280;49541;57.840;12.306;2023-02-16T20:24:53;100481.13;;;7.19;86.58
63405;BME280;49541;57.840;12.306;2023-02-16T20:29:53;100460.31;;;7.26;86.56
63405;BME280;49541;57.840;12.306;2023-02-16T20:34:54;100450.94;;;7.68;85.00
63405;BME280;49541;57.840;12.306;2023-02-16T20:39:54;100450.47;;;7.74;84.11
63405;BME280;49541;57.840;12.306;2023-02-16T20:44:54;100438.28;;;7.72;83.91
63405;BME280;49541;57.840;12.306;2023-02-16T20:49:54;100423.47;;;7.80;83.05
63405;BME280;49541;57.840;12.306;2023-02-16T20:54:58;100419.34;;;7.76;82.93
63405;BME280;49541;57.840;12.306;2023-02-16T20:59:58;100421.88;;;7.55;83.54
63405;BME280;49541;57.840;12.306;2023-02-16T21:04:59;100411.03;;;7.58;83.42
63405;BME280;49541;57.840;12.306;2023-02-16T21:09:59;100406.72;;;7.69;83.20
63405;BME280;49541;57.840;12.306;2023-02-16T21:14:59;100396.00;;;7.70;82.56
63405;BME280;49541;57.840;12.306;2023-02-16T21:19:59;100399.13;;;7.87;82.35
63405;BME280;49541;57.840;12.306;2023-02-16T21:24:59;100389.59;;;7.50;84.45
63405;BME280;49541;57.840;12.306;2023-02-16T21:29:59;100375.97;;;7.55;83.35
63405;BME280;49541;57.840;12.306;2023-02-16T21:35:00;100373.09;;;7.47;83.94
63405;BME280;49541;57.840;12.306;2023-02-16T21:40:00;100377.88;;;7.30;85.17
63405;BME280;49541;57.840;12.306;2023-02-16T21:45:19;100376.66;;;7.23;84.92
63405;BME280;49541;57.840;12.306;2023-02-16T21:50:19;100383.59;;;7.02;85.57
63405;BME280;49541;57.840;12.306;2023-02-16T21:55:19;100375.19;;;7.08;85.93
63405;BME280;49541;57.840;12.306;2023-02-16T22:00:38;100372.03;;;7.14;85.62
63405;BME280;49541;57.840;12.306;2023-02-16T22:05:38;100374.81;;;6.77;86.98
63405;BME280;49541;57.840;12.306;2023-02-16T22:10:38;100367.94;;;6.74;87.62
63405;BME280;49541;57.840;12.306;2023-02-16T22:15:38;100351.41;;;6.60;88.49
63405;BME280;49541;57.840;12.306;2023-02-16T22:20:39;100340.16;;;6.45;88.10
63405;BME280;49541;57.840;12.306;2023-02-16T22:25:39;100337.16;;;6.49;87.79
63405;BME280;49541;57.840;12.306;2023-02-16T22:30:39;100340.94;;;6.82;87.39
63405;BME280;49541;57.840;12.306;2023-02-16T22:35:39;100337.41;;;7.17;85.12
63405;BME280;49541;57.840;12.306;2023-02-16T22:40:39;100328.44;;;6.95;84.85
63405;BME280;49541;57.840;12.306;2023-02-16T22:45:40;100329.00;;;7.23;84.98
63405;BME280;49541;57.840;12.306;2023-02-16T22:50:40;100331.19;;;7.41;82.56
63405;BME280;49541;57.840;12.306;2023-02-16T22:55:40;100323.81;;;7.22;82.15
63405;BME280;49541;57.840;12.306;2023-02-16T23:00:40;100327.75;;;7.05;83.62
63405;BME280;49541;57.840;12.306;2023-02-16T23:05:40;100304.75;;;6.94;83.46
63405;BME280;49541;57.840;12.306;2023-02-16T23:10:41;100307.72;;;6.78;85.38
63405;BME280;49541;57.840;12.306;2023-02-16T23:16:05;100297.50;;;6.85;84.58
63405;BME280;49541;57.840;12.306;2023-02-16T23:21:07;100310.47;;;6.76;84.23
63405;BME280;49541;57.840;12.306;2023-02-16T23:26:07;100301.25;;;6.34;86.14
63405;BME280;49541;57.840;12.306;2023-02-16T23:31:08;100293.91;;;6.50;86.87
63405;BME280;49541;57.840;12.306;2023-02-16T23:36:08;100281.69;;;6.36;87.27
63405;BME280;49541;57.840;12.306;2023-02-16T23:41:12;100265.44;;;6.30;87.70
63405;BME280;49541;57.840;12.306;2023-02-16T23:46:12;100255.28;;;6.24;87.84
63405;BME280;49541;57.840;12.306;2023-02-16T23:51:12;100242.28;;;6.45;86.97
63405;BME280;49541;57.840;12.306;2023-02-16T23:56:14;100231.41;;;6.61;86.21
